Time;durP1;ratioP1;P1;durP2;ratioP2;P2;SDS_P1;SDS_P2;PMS_P1;PMS_P2;Temp;Humidity;BMP_temperature;BMP_pressure;BME280_temperature;BME280_humidity;BME280_pressure;Samples;Min_cycle;Max_cycle;Signal;HPM_P1;HPM_P2
2023/02/17 00:00:16;;;;;;;6.60;3.80;;;11.50;99.90;;;10.59;100.00;102580.13;4167641;28;20397;-78
2023/02/17 00:02:17;;;;;;;9.00;4.25;;;11.50;99.90;;;10.60;100.00;102583.59;4167658;28;20030;-78
2023/02/17 00:04:18;;;;;;;7.72;4.05;;;11.40;99.90;;;10.63;100.00;102580.75;4167704;28;20374;-78
2023/02/17 00:06:24;;;;;;;18.27;4.97;;;11.40;99.90;;;10.58;100.00;102581.06;4153120;28;20025;-78
2023/02/17 00:08:25;;;;;;;15.70;5.22;;;11.40;99.90;;;10.58;100.00;102594.25;4169065;28;20032;-78
2023/02/17 00:10:25;;;;;;;7.30;3.65;;;11.40;99.90;;;10.57;100.00;102590.75;4168732;28;20026;-78
2023/02/17 00:12:26;;;;;;;39.90;5.53;;;11.40;99.90;;;10.52;100.00;102578.84;4167106;28;20532;-78
2023/02/17 00:14:27;;;;;;;15.90;5.03;;;11.40;99.90;;;10.52;100.00;102584.97;4168707;28;20489;-78
2023/02/17 00:16:29;;;;;;;15.93;4.95;;;11.40;99.90;;;10.50;100.00;102580.78;4170221;28;20036;-78
2023/02/17 00:18:29;;;;;;;8.55;3.97;;;11.40;99.90;;;10.56;100.00;102585.63;4174506;28;20516;-78
2023/02/17 00:20:30;;;;;;;10.93;3.78;;;11.40;99.90;;;10.55;100.00;102595.31;4174250;28;20025;-78
2023/02/17 00:22:31;;;;;;;5.43;3.35;;;11.40;99.90;;;10.51;100.00;102582.47;4174087;28;20032;-78
2023/02/17 00:24:36;;;;;;;15.50;4.65;;;11.40;99.90;;;10.51;100.00;102579.84;4172638;28;20045;-78
2023/02/17 00:26:37;;;;;;;19.17;4.38;;;11.30;99.90;;;10.50;100.00;102568.44;4175879;28;20025;-78
2023/02/17 00:28:38;;;;;;;7.60;3.75;;;11.40;99.90;;;10.54;100.00;102579.63;4172633;28;20052;-78
2023/02/17 00:30:39;;;;;;;7.97;3.70;;;11.40;99.90;;;10.54;100.00;102582.25;4190534;28;20044;-78
2023/02/17 00:32:39;;;;;;;8.63;3.75;;;11.40;99.90;;;10.51;100.00;102577.19;4188098;28;20066;-78
2023/02/17 00:34:40;;;;;;;13.90;4.10;;;11.30;99.90;;;10.48;100.00;102578.22;4175223;28;20029;-78
2023/02/17 00:36:41;;;;;;;10.20;4.47;;;11.30;99.90;;;10.52;100.00;102586.78;4176394;28;20033;-78
2023/02/17 00:38:43;;;;;;;15.50;3.65;;;11.40;99.90;;;10.50;100.00;102578.13;4179179;28;20040;-78
2023/02/17 00:40:44;;;;;;;10.73;4.13;;;11.30;99.90;;;10.47;100.00;102581.00;4172569;28;20032;-78
2023/02/17 00:42:46;;;;;;;16.77;4.68;;;11.30;99.90;;;10.50;100.00;102586.06;4172678;28;20030;-78
2023/02/17 00:44:47;;;;;;;7.90;3.25;;;11.40;99.90;;;10.43;100.00;102568.97;4172688;28;20424;-78
2023/02/17 00:46:49;;;;;;;10.07;3.72;;;11.30;99.90;;;10.51;100.00;102585.13;4178351;28;20024;-78
2023/02/17 00:48:50;;;;;;;6.25;3.95;;;11.30;99.90;;;10.48;100.00;102580.06;4175589;28;20028;-78
2023/02/17 00:50:51;;;;;;;8.38;3.78;;;11.30;99.90;;;10.53;100.00;102581.41;4172758;28;20029;-78
2023/02/17 00:52:52;;;;;;;7.80;4.32;;;11.30;99.90;;;10.44;100.00;102570.66;4176209;28;20029;-78
2023/02/17 00:54:53;;;;;;;9.88;4.28;;;11.30;99.90;;;10.53;100.00;102583.19;4184629;28;20047;-78
2023/02/17 00:56:54;;;;;;;7.38;4.03;;;11.30;99.90;;;10.52;100.00;102569.16;4178198;28;20352;-78
2023/02/17 00:58:55;;;;;;;10.20;3.47;;;11.30;99.90;;;10.49;100.00;102573.81;4174053;28;20119;-78
2023/02/17 01:00:57;;;;;;;7.28;4.18;;;11.30;99.90;;;10.52;100.00;102581.50;4172630;28;20021;-78
2023/02/17 01:02:58;;;;;;;8.30;3.92;;;11.30;99.90;;;10.45;100.00;102570.53;4172552;28;20076;-78
2023/02/17 01:04:59;;;;;;;7.25;4.05;;;11.30;99.90;;;10.52;100.00;102581.50;4173538;28;20496;-78
2023/02/17 01:07:00;;;;;;;4.60;3.10;;;11.30;99.90;;;10.46;100.00;102552.91;4180134;28;20036;-78
2023/02/17 01:09:02;;;;;;;5.13;3.15;;;11.40;99.90;;;10.50;100.00;102575.50;4173921;28;20508;-78
2023/02/17 01:11:04;;;;;;;6.63;3.88;;;11.40;99.90;;;10.45;100.00;102554.72;4172471;28;20036;-78
2023/02/17 01:13:06;;;;;;;9.85;4.68;;;11.30;99.90;;;10.46;100.00;102555.56;4169932;28;20025;-78
2023/02/17 01:15:07;;;;;;;5.78;3.75;;;11.40;99.90;;;10.48;100.00;102553.66;4186324;28;20492;-78
2023/02/17 01:17:08;;;;;;;8.15;4.45;;;11.40;99.90;;;10.56;100.00;102564.50;4177036;28;20044;-78
2023/02/17 01:19:16;;;;;;;5.22;3.42;;;11.40;99.90;;;10.54;100.00;102561.16;4172647;28;20041;-78
2023/02/17 01:21:22;;;;;;;4.45;3.28;;;11.40;99.90;;;10.50;100.00;102557.03;4173370;28;20021;-78
2023/02/17 01:23:23;;;;;;;4.53;3.17;;;11.40;99.90;;;10.57;100.00;102571.47;4172140;28;20029;-78
2023/02/17 01:25:24;;;;;;;5.25;3.22;;;11.40;99.90;;;10.53;100.00;102565.56;4172043;28;20053;-78
2023/02/17 01:27:25;;;;;;;6.18;3.30;;;11.30;99.90;;;10.52;100.00;102563.03;4175086;28;20099;-78
2023/02/17 01:29:26;;;;;;;5.20;3.08;;;11.40;99.90;;;10.57;100.00;102571.47;4169478;28;20026;-78
2023/02/17 01:31:28;;;;;;;5.38;3.33;;;11.40;99.90;;;10.46;100.00;102559.03;4170040;28;20025;-78
2023/02/17 01:33:28;;;;;;;5.75;3.63;;;11.30;99.90;;;10.54;100.00;102571.69;4171005;28;20544;-78
2023/02/17 01:35:29;;;;;;;5.93;3.15;;;11.40;99.90;;;10.55;100.00;102571.56;4169736;28;20029;-78
2023/02/17 01:37:32;;;;;;;8.00;3.20;;;11.40;99.90;;;10.55;100.00;102565.44;4169990;28;20044;-78
2023/02/17 01:39:33;;;;;;;4.57;3.00;;;11.40;99.90;;;10.60;100.00;102559.84;4170232;28;20112;-78
2023/02/17 01:41:35;;;;;;;5.15;3.03;;;11.40;99.90;;;10.57;100.00;102555.66;4169460;28;20026;-78
2023/02/17 01:43:36;;;;;;;5.50;3.33;;;11.40;99.90;;;10.53;100.00;102546.25;4169611;28;20033;-78
2023/02/17 01:46:02;;;;;;;7.85;3.22;;;11.40;99.90;;;10.58;100.00;102559.94;4169453;28;20025;-78
2023/02/17 01:48:13;;;;;;;6.82;3.08;;;11.40;99.90;;;10.51;100.00;102543.72;4178124;28;20485;-78
2023/02/17 01:50:15;;;;;;;7.32;2.90;;;11.40;99.90;;;10.54;100.00;102551.41;4169518;28;20157;-78
2023/02/17 01:52:22;;;;;;;6.35;3.15;;;11.40;99.90;;;10.50;100.00;102549.13;4169488;28;20053;-78
2023/02/17 01:54:41;;;;;;;9.15;3.53;;;11.40;99.90;;;10.48;100.00;102548.41;4153067;28;20030;-78
2023/02/17 01:56:46;;;;;;;6.47;3.15;;;11.40;99.90;;;10.47;100.00;102546.69;4157277;28;20128;-78
2023/02/17 01:58:59;;;;;;;6.75;3.42;;;11.40;99.90;;;10.53;100.00;102557.66;4168802;28;20026;-78
2023/02/17 02:01:03;;;;;;;5.50;3.05;;;11.40;99.90;;;10.55;100.00;102568.09;4169482;28;20029;-78
2023/02/17 02:03:07;;;;;;;;;;;11.40;99.90;;;10.51;100.00;102562.19;4169982;28;20033;-78
2023/02/17 02:05:10;;;;;;;8.48;3.65;;;11.40;99.90;;;10.52;100.00;102557.75;4169429;28;20351;-78
2023/02/17 02:07:20;;;;;;;8.00;3.78;;;11.40;99.90;;;10.48;100.00;102551.03;4176229;28;20109;-78
2023/02/17 02:09:41;;;;;;;6.97;3.80;;;11.40;99.90;;;10.52;100.00;102561.25;4170448;28;20025;-78
2023/02/17 02:11:42;;;;;;;7.45;3.55;;;11.30;99.90;;;10.52;100.00;102560.38;4169257;28;20039;-78
2023/02/17 02:13:43;;;;;;;5.70;3.60;;;11.40;99.90;;;10.46;100.00;102553.75;4169051;28;20061;-78
2023/02/17 02:16:04;;;;;;;6.78;3.40;;;11.30;99.90;;;10.48;100.00;102566.88;4169214;28;20083;-78
2023/02/17 02:18:38;;;;;;;6.05;3.45;;;11.40;99.90;;;10.54;100.00;102575.16;4183300;28;20033;-78
2023/02/17 02:21:25;;;;;;;5.63;3.22;;;11.40;99.90;;;10.54;100.00;102574.34;4178240;28;20034;-78
2023/02/17 02:23:45;;;;;;;6.65;3.15;;;11.40;99.90;;;10.52;100.00;102574.44;4173727;28;20033;-78
2023/02/17 02:26:41;;;;;;;5.95;3.42;;;11.40;99.90;;;10.51;100.00;102574.56;4184951;28;20041;-78
2023/02/17 02:29:15;;;;;;;8.13;3.78;;;11.40;99.90;;;10.51;100.00;102583.28;4170353;28;20025;-78
2023/02/17 02:31:46;;;;;;;7.13;3.58;;;11.40;99.90;;;10.53;100.00;102580.56;4170293;28;20108;-78
2023/02/17 02:33:57;;;;;;;6.88;4.25;;;11.40;99.90;;;10.52;100.00;102569.16;4170010;28;20085;-78
2023/02/17 02:36:26;;;;;;;5.30;3.50;;;11.30;99.90;;;10.55;100.00;102565.44;4170074;28;20035;-78
2023/02/17 02:39:09;;;;;;;5.15;3.30;;;11.40;99.90;;;10.53;100.00;102570.00;4170114;28;20032;-78
2023/02/17 02:41:22;;;;;;;7.30;4.00;;;11.30;99.90;;;10.52;100.00;102568.31;4171607;28;20037;-77
2023/02/17 02:43:24;;;;;;;7.85;4.22;;;11.40;99.90;;;10.47;100.00;102555.47;4167162;28;20041;-78
2023/02/17 02:45:25;;;;;;;6.47;3.70;;;11.40;99.90;;;10.50;100.00;102564.94;4173041;28;20033;-78
2023/02/17 02:47:52;;;;;;;9.00;3.88;;;11.40;99.90;;;10.48;100.00;102562.41;4176560;28;20013;-78
2023/02/17 02:49:53;;;;;;;6.50;3.85;;;11.40;99.90;;;10.53;100.00;102567.38;4169195;28;20040;-78
2023/02/17 02:52:14;;;;;;;7.28;4.07;;;11.40;99.90;;;10.54;100.00;102566.41;4168664;28;20033;-78
2023/02/17 02:54:47;;;;;;;5.78;3.63;;;11.40;99.90;;;10.54;100.00;102569.06;4174128;28;20025;-78
2023/02/17 02:57:21;;;;;;;5.40;3.25;;;11.40;99.90;;;10.54;100.00;102572.50;4176893;28;20021;-78
2023/02/17 02:59:46;;;;;;;7.10;3.58;;;11.40;99.90;;;10.55;100.00;102576.00;4175976;28;20028;-78
2023/02/17 03:02:22;;;;;;;5.78;3.03;;;11.40;99.90;;;10.52;100.00;102565.66;4170813;28;20190;-78
2023/02/17 03:04:35;;;;;;;6.32;3.55;;;11.40;99.90;;;10.51;100.00;102572.75;4168399;28;20112;-78
2023/02/17 03:07:00;;;;;;;7.18;4.00;;;11.40;99.90;;;10.50;100.00;102563.16;4174350;28;20487;-78
2023/02/17 03:09:21;;;;;;;7.30;3.97;;;11.40;99.90;;;10.54;100.00;102571.69;4169106;28;20022;-78
2023/02/17 03:11:33;;;;;;;7.38;3.78;;;11.40;99.90;;;10.56;100.00;102569.78;4168148;28;20025;-78
2023/02/17 03:13:38;;;;;;;7.47;3.80;;;11.40;99.90;;;10.58;100.00;102575.78;4173981;28;20576;-78
2023/02/17 03:15:39;;;;;;;7.35;4.20;;;11.40;99.90;;;10.56;100.00;102575.06;4176914;28;20025;-78
2023/02/17 03:17:40;;;;;;;6.95;4.00;;;11.40;99.90;;;10.58;100.00;102573.13;4155416;28;20490;-78
2023/02/17 03:19:44;;;;;;;8.93;3.80;;;11.40;99.90;;;10.47;100.00;102560.75;4168040;28;20030;-78
2023/02/17 03:21:57;;;;;;;7.43;4.00;;;11.40;99.90;;;10.60;100.00;102576.53;4151876;28;20498;-78
2023/02/17 03:23:57;;;;;;;6.82;3.67;;;11.40;99.90;;;10.57;100.00;102571.47;4184629;28;20064;-78
2023/02/17 03:25:58;;;;;;;5.97;3.55;;;11.40;99.90;;;10.57;100.00;102574.94;4151767;28;20049;-78
2023/02/17 03:27:59;;;;;;;5.65;3.22;;;11.40;99.90;;;10.62;100.00;102579.91;4184218;28;20029;-78
2023/02/17 03:30:01;;;;;;;8.75;4.30;;;11.40;99.90;;;10.51;100.00;102566.63;4168124;28;20029;-78
2023/02/17 03:32:02;;;;;;;6.97;3.72;;;11.40;99.90;;;10.58;100.00;102573.13;4183938;28;20017;-78
2023/02/17 03:34:04;;;;;;;6.80;3.70;;;11.40;99.90;;;10.57;100.00;102576.75;4167820;28;20053;-78
2023/02/17 03:36:05;;;;;;;6.05;3.75;;;11.40;99.90;;;10.60;100.00;102579.16;4182898;28;20029;-78
2023/02/17 03:38:06;;;;;;;5.07;3.10;;;11.40;99.90;;;10.54;100.00;102566.41;4167972;28;20029;-78
2023/02/17 03:40:08;;;;;;;5.78;3.47;;;11.50;99.90;;;10.55;100.00;102562.81;4167846;28;20029;-78
2023/02/17 03:42:09;;;;;;;6.35;3.25;;;11.40;99.90;;;10.60;100.00;102571.25;4167545;28;20038;-78
2023/02/17 03:44:10;;;;;;;7.95;4.30;;;11.40;99.90;;;10.63;100.00;102572.81;4167526;28;20033;-78
2023/02/17 03:46:14;;;;;;;6.88;3.60;;;11.40;99.90;;;10.56;100.00;102567.13;4171018;28;20405;-78
2023/02/17 03:48:15;;;;;;;13.63;5.15;;;11.40;99.90;;;10.60;100.00;102580.97;4159085;28;20021;-78
2023/02/17 03:50:16;;;;;;;6.68;4.00;;;11.40;99.90;;;10.55;100.00;102570.72;4167559;28;20037;-78
2023/02/17 03:52:18;;;;;;;9.30;4.30;;;11.40;99.90;;;10.57;100.00;102574.13;4168327;28;20026;-78
2023/02/17 03:54:19;;;;;;;9.57;4.20;;;11.40;99.90;;;10.58;100.00;102573.13;4173463;28;20065;-78
2023/02/17 03:56:20;;;;;;;8.30;3.97;;;11.50;99.90;;;10.55;100.00;102563.66;4181975;28;20032;-78
2023/02/17 03:58:21;;;;;;;6.65;3.42;;;11.40;99.90;;;10.59;100.00;102572.19;4151185;28;20038;-78
2023/02/17 04:00:22;;;;;;;6.50;3.85;;;11.40;99.90;;;10.51;100.00;102564.00;4167513;28;20033;-78
2023/02/17 04:02:23;;;;;;;7.07;3.50;;;11.50;99.90;;;10.62;100.00;102582.53;4169029;28;20056;-78
2023/02/17 04:04:24;;;;;;;11.95;4.70;;;11.40;99.90;;;10.53;100.00;102570.84;4167493;28;20037;-78
2023/02/17 04:06:25;;;;;;;6.07;3.70;;;11.40;99.90;;;10.57;100.00;102580.22;4187691;28;20040;-78
2023/02/17 04:08:26;;;;;;;13.50;4.72;;;11.40;99.90;;;10.60;100.00;102580.97;4152184;28;20112;-78
2023/02/17 04:10:27;;;;;;;10.13;4.43;;;11.40;99.90;;;10.53;100.00;102568.22;4167328;28;20036;-78
2023/02/17 04:12:28;;;;;;;8.18;4.55;;;11.40;99.90;;;10.54;100.00;102583.06;4167506;28;20421;-78
2023/02/17 04:14:29;;;;;;;14.60;4.80;;;11.40;99.90;;;10.56;100.00;102590.88;4167491;28;20382;-78
2023/02/17 04:16:30;;;;;;;25.65;6.03;;;11.40;99.90;;;10.58;100.00;102583.69;4170740;28;20052;-78
2023/02/17 04:18:32;;;;;;;13.85;5.28;;;11.40;99.90;;;10.48;100.00;102572.97;4168668;28;20029;-78
2023/02/17 04:20:32;;;;;;;12.60;5.93;;;11.40;99.90;;;10.58;100.00;102581.06;4167525;28;20052;-78
2023/02/17 04:22:33;;;;;;;10.93;4.72;;;11.40;99.90;;;10.57;100.00;102592.59;4167335;28;20038;-78
2023/02/17 04:24:36;;;;;;;18.38;5.47;;;11.40;99.90;;;10.56;100.00;102590.88;4183552;28;20041;-77
2023/02/17 04:26:37;;;;;;;15.15;5.20;;;11.40;99.90;;;10.56;100.00;102598.81;4172223;28;20031;-78
2023/02/17 04:28:40;;;;;;;22.00;6.13;;;11.40;99.90;;;10.62;100.00;102595.72;4175647;28;20031;-78
2023/02/17 04:30:48;;;;;;;18.35;5.78;;;11.40;99.90;;;10.52;100.00;102594.69;4168655;28;20034;-78
2023/02/17 04:32:48;;;;;;;27.52;6.18;;;11.40;99.90;;;10.52;100.00;102594.69;4168561;28;20033;-78
2023/02/17 04:34:49;;;;;;;11.57;6.18;;;11.40;99.90;;;10.54;100.00;102606.81;4168590;28;20033;-78
2023/02/17 04:36:50;;;;;;;17.15;5.28;;;11.40;99.90;;;10.57;100.00;102604.94;4175118;28;20025;-78
2023/02/17 04:38:51;;;;;;;16.73;5.70;;;11.40;99.90;;;10.47;100.00;102592.41;4171205;28;20034;-78
2023/02/17 04:40:55;;;;;;;19.50;5.60;;;11.40;99.90;;;10.56;100.00;102614.63;4167093;28;20437;-78
2023/02/17 04:42:56;;;;;;;16.27;5.00;;;11.40;99.90;;;10.51;100.00;102616.78;4167359;28;20511;-78
2023/02/17 04:44:57;;;;;;;14.60;5.35;;;11.40;99.90;;;10.52;100.00;102615.81;4168654;28;20587;-78
2023/02/17 04:46:58;;;;;;;17.17;5.15;;;11.40;99.90;;;10.47;100.00;102610.88;4163524;28;20029;-78
2023/02/17 04:48:58;;;;;;;8.85;4.35;;;11.30;99.90;;;10.44;100.00;102608.44;4167077;28;20024;-79
2023/02/17 04:50:59;;;;;;;11.93;5.05;;;11.40;99.90;;;10.48;100.00;102614.34;4167133;28;20030;-78
2023/02/17 04:53:00;;;;;;;7.65;3.92;;;11.40;99.90;;;10.50;100.00;102623.00;4168420;28;20009;-78
2023/02/17 04:55:01;;;;;;;12.18;5.20;;;11.40;99.90;;;10.54;100.00;102635.03;4178849;28;20053;-78
2023/02/17 04:57:02;;;;;;;11.68;4.70;;;11.40;99.90;;;10.56;100.00;102633.13;4166860;28;20472;-78
2023/02/17 04:59:03;;;;;;;9.98;4.57;;;11.30;99.90;;;10.53;100.00;102634.19;4167111;28;20033;-78
2023/02/17 05:01:04;;;;;;;8.20;4.65;;;11.40;99.90;;;10.57;100.00;102638.25;4167171;28;20021;-78
2023/02/17 05:03:05;;;;;;;8.48;4.15;;;11.40;99.90;;;10.57;100.00;102643.53;4168833;28;20116;-78
2023/02/17 05:05:06;;;;;;;9.07;4.30;;;11.40;99.90;;;10.50;100.00;102636.19;4170159;28;20032;-78
2023/02/17 05:07:07;;;;;;;7.88;3.97;;;11.40;99.90;;;10.46;100.00;102629.44;4175825;28;20504;-78
2023/02/17 05:09:08;;;;;;;6.13;3.70;;;11.40;99.90;;;10.57;100.00;102645.38;4170309;28;20025;-78
2023/02/17 05:11:09;;;;;;;7.25;4.07;;;11.40;99.90;;;10.54;100.00;102653.50;4169788;28;20073;-78
2023/02/17 05:13:10;;;;;;;7.45;4.47;;;11.40;99.90;;;10.58;100.00;102657.59;4170175;28;20092;-78
2023/02/17 05:15:12;;;;;;;9.45;4.35;;;11.40;99.90;;;10.61;100.00;102653.88;4170180;28;20037;-78
2023/02/17 05:17:13;;;;;;;9.00;5.20;;;11.40;99.90;;;10.59;100.00;102651.38;4172325;28;20112;-78
2023/02/17 05:19:14;;;;;;;7.80;4.50;;;11.40;99.90;;;10.57;100.00;102647.16;4170067;28;20053;-78
2023/02/17 05:21:15;;;;;;;5.82;3.80;;;11.40;99.90;;;10.51;100.00;102640.53;4169963;28;20033;-78
2023/02/17 05:23:16;;;;;;;5.25;3.22;;;11.40;99.90;;;10.60;100.00;102653.06;4170037;28;20033;-78
2023/02/17 05:25:17;;;;;;;6.07;4.00;;;11.40;99.90;;;10.60;100.00;102662.78;4185837;28;20053;-78
2023/02/17 05:27:18;;;;;;;6.18;3.53;;;11.50;99.90;;;10.59;100.00;102659.28;4180735;28;20106;-78
2023/02/17 05:29:22;;;;;;;6.05;3.63;;;11.40;99.90;;;10.55;100.00;102658.66;4173956;28;20393;-78
2023/02/17 05:31:23;;;;;;;7.47;3.53;;;11.40;99.90;;;10.61;100.00;102670.56;4170270;28;20017;-78
2023/02/17 05:33:23;;;;;;;6.45;3.45;;;11.50;99.90;;;10.60;100.00;102670.69;4169851;28;20033;-78
2023/02/17 05:35:24;;;;;;;5.28;3.75;;;11.50;99.90;;;10.58;100.00;102673.41;4153685;28;20026;-78
2023/02/17 05:37:26;;;;;;;5.88;3.78;;;11.40;99.90;;;10.51;100.00;102672.19;4181422;28;20083;-78
2023/02/17 05:39:27;;;;;;;8.80;4.82;;;11.40;99.90;;;10.53;100.00;102680.81;4169856;28;20420;-78
2023/02/17 05:41:28;;;;;;;8.18;4.15;;;11.40;99.90;;;10.53;100.00;102683.47;4186001;28;20029;-78
2023/02/17 05:43:30;;;;;;;6.88;3.72;;;11.40;99.90;;;10.50;100.00;102675.75;4187255;28;20062;-78
2023/02/17 05:45:31;;;;;;;9.90;4.28;;;11.40;99.90;;;10.53;100.00;102680.81;4187234;28;20025;-78
2023/02/17 05:47:34;;;;;;;7.95;3.70;;;11.40;99.90;;;10.53;100.00;102686.09;4175828;28;20044;-78
2023/02/17 05:49:35;;;;;;;7.53;3.95;;;11.40;99.90;;;10.50;100.00;102670.50;4153404;28;20074;-78
2023/02/17 05:51:36;;;;;;;7.90;3.80;;;11.40;99.90;;;10.51;100.00;102680.09;4169441;28;20029;-78
2023/02/17 05:53:37;;;;;;;5.18;3.22;;;11.40;99.90;;;10.47;100.00;102675.97;4169561;28;20025;-78
2023/02/17 05:55:38;;;;;;;6.25;3.83;;;11.40;99.90;;;10.50;100.00;102686.31;4185835;28;20028;-78
2023/02/17 05:57:39;;;;;;;6.68;4.07;;;11.40;99.90;;;10.52;100.00;102679.13;4174946;28;20047;-78
2023/02/17 05:59:40;;;;;;;6.47;3.60;;;11.40;99.90;;;10.50;100.00;102688.97;4170567;28;20029;-78
2023/02/17 06:01:40;;;;;;;7.25;3.75;;;11.40;99.90;;;10.50;100.00;102702.16;4170862;28;20022;-78
2023/02/17 06:03:41;;;;;;;6.93;4.03;;;11.40;99.90;;;10.51;100.00;102696.75;4169507;28;20030;-78
2023/02/17 06:05:44;;;;;;;6.38;3.38;;;11.40;99.90;;;10.52;100.00;102694.97;4169374;28;20057;-78
2023/02/17 06:07:45;;;;;;;5.53;3.58;;;11.40;99.90;;;10.49;100.00;102698.66;4172585;28;20036;-78
2023/02/17 06:09:46;;;;;;;9.55;3.75;;;11.40;99.90;;;10.52;100.00;102700.25;4169342;28;20026;-78
2023/02/17 06:11:47;;;;;;;7.90;4.07;;;11.40;99.90;;;10.46;100.00;102695.38;4168757;28;20424;-78
2023/02/17 06:13:48;;;;;;;6.50;3.45;;;11.40;99.90;;;10.48;100.00;102698.78;4158404;28;20032;-78
2023/02/17 06:15:48;;;;;;;7.53;3.75;;;11.40;99.90;;;10.41;100.00;102689.59;4176509;28;20029;-77
2023/02/17 06:17:49;;;;;;;8.32;3.75;;;11.40;99.90;;;10.41;100.00;102700.16;4171025;28;20443;-78
2023/02/17 06:19:50;;;;;;;6.70;3.70;;;11.30;99.90;;;10.45;100.00;102699.00;4170093;28;20120;-78
2023/02/17 06:21:51;;;;;;;7.25;3.60;;;11.30;99.90;;;10.46;100.00;102705.94;4170314;28;20426;-78
2023/02/17 06:23:52;;;;;;;6.30;3.72;;;11.30;99.90;;;10.49;100.00;102709.22;4168992;28;20038;-78
2023/02/17 06:25:53;;;;;;;7.80;3.50;;;11.40;99.90;;;10.48;100.00;102719.91;4152258;28;20041;-78
2023/02/17 06:27:54;;;;;;;6.25;3.67;;;11.30;99.90;;;10.51;100.00;102728.41;4180820;28;20544;-77
2023/02/17 06:29:55;;;;;;;6.38;3.65;;;11.30;99.90;;;10.56;100.00;102728.09;4169001;28;20029;-78
2023/02/17 06:31:56;;;;;;;7.10;4.20;;;11.40;99.90;;;10.50;100.00;102713.56;4170612;28;20049;-78
2023/02/17 06:33:57;;;;;;;6.65;3.67;;;11.40;99.90;;;10.55;100.00;102726.41;4168888;28;20033;-78
2023/02/17 06:35:58;;;;;;;6.82;3.45;;;11.40;99.90;;;10.58;100.00;102726.19;4152422;28;20033;-78
2023/02/17 06:37:59;;;;;;;7.93;5.10;;;11.50;99.90;;;10.65;100.00;102739.81;4178309;28;20083;-78
2023/02/17 06:40:00;;;;;;;6.25;3.60;;;11.50;99.90;;;10.57;100.00;102729.81;4168950;28;20029;-78
2023/02/17 06:42:01;;;;;;;7.38;3.90;;;11.50;99.90;;;10.59;100.00;102741.09;4168520;28;20021;-78
2023/02/17 06:44:02;;;;;;;7.43;3.97;;;11.50;99.90;;;10.52;100.00;102722.19;4168526;28;20481;-77
2023/02/17 06:46:03;;;;;;;7.80;4.43;;;11.50;99.90;;;10.63;100.00;102750.50;4169044;28;20034;-78
2023/02/17 06:48:04;;;;;;;9.13;4.38;;;11.50;99.90;;;10.64;100.00;102752.16;4176776;28;20025;-78
2023/02/17 06:50:07;;;;;;;9.23;4.70;;;11.50;99.90;;;10.63;100.00;102745.22;4173330;28;20025;-78
2023/02/17 06:52:08;;;;;;;7.68;4.63;;;11.50;99.90;;;10.57;100.00;102738.53;4170720;28;20048;-78
2023/02/17 06:54:09;;;;;;;9.23;4.35;;;11.50;99.90;;;10.63;100.00;102750.50;4166026;28;20041;-78
2023/02/17 06:56:10;;;;;;;7.10;4.28;;;11.50;99.90;;;10.65;100.00;102751.22;4163993;28;20064;-78
2023/02/17 06:58:11;;;;;;;7.25;4.00;;;11.50;99.90;;;10.64;100.00;102751.31;4168626;28;20029;-78
2023/02/17 07:00:12;;;;;;;6.90;3.25;;;11.50;99.90;;;10.61;100.00;102755.00;4182641;28;20041;-78
2023/02/17 07:02:13;;;;;;;5.93;3.75;;;11.50;99.90;;;10.64;100.00;102761.88;4181270;28;20076;-78
2023/02/17 07:04:15;;;;;;;6.38;3.45;;;11.50;99.90;;;10.62;100.00;102761.13;4151872;28;20034;-78
2023/02/17 07:06:16;;;;;;;6.07;3.65;;;11.50;99.90;;;10.63;100.00;102765.47;4173585;28;20111;-78
2023/02/17 07:08:17;;;;;;;6.75;3.67;;;11.50;99.90;;;10.55;100.00;102756.28;4170722;28;20021;-78
2023/02/17 07:10:18;;;;;;;5.50;3.60;;;11.50;99.90;;;10.65;100.00;102771.47;4167975;28;20037;-78
2023/02/17 07:12:19;;;;;;;4.97;3.17;;;11.50;99.90;;;10.66;100.00;102771.41;4168651;28;20394;-78
2023/02/17 07:14:20;;;;;;;5.50;3.78;;;11.50;99.90;;;10.60;100.00;102765.69;4152027;28;20029;-78
2023/02/17 07:16:21;;;;;;;6.32;3.75;;;11.50;99.90;;;10.60;100.00;102761.25;4175038;28;20040;-78
2023/02/17 07:18:22;;;;;;;4.68;3.15;;;11.50;99.90;;;10.64;100.00;102778.56;4169481;28;20085;-78
2023/02/17 07:20:23;;;;;;;5.55;3.55;;;11.50;99.90;;;10.60;100.00;102774.47;4168106;28;20030;-78
2023/02/17 07:22:25;;;;;;;4.85;3.30;;;11.50;99.90;;;10.70;100.00;102783.41;4169343;28;20052;-78
2023/02/17 07:24:26;;;;;;;6.05;3.67;;;11.50;99.90;;;10.68;100.00;102787.09;4168939;28;20029;-78
2023/02/17 07:26:27;;;;;;;6.13;3.38;;;11.60;99.90;;;10.63;100.00;102779.53;4171611;28;20033;-78
2023/02/17 07:28:28;;;;;;;5.40;3.08;;;11.60;99.90;;;10.60;100.00;102770.97;4169262;28;20033;-78
2023/02/17 07:30:29;;;;;;;5.95;3.83;;;11.60;99.90;;;10.64;100.00;102767.16;4168245;28;20025;-78
2023/02/17 07:32:30;;;;;;;7.88;3.50;;;11.50;99.90;;;10.73;100.00;102790.25;4184669;28;20512;-78
2023/02/17 07:34:31;;;;;;;6.30;3.70;;;11.60;99.90;;;10.68;100.00;102779.19;4167958;28;20025;-78
2023/02/17 07:36:31;;;;;;;6.45;3.70;;;11.60;99.90;;;10.73;100.00;102788.47;4168544;28;20026;-78
2023/02/17 07:38:33;;;;;;;6.20;3.78;;;11.60;99.90;;;10.68;100.00;102785.31;4184552;28;20079;-78
2023/02/17 07:40:34;;;;;;;4.85;3.47;;;11.60;99.90;;;10.72;100.00;102788.59;4151473;28;20034;-78
2023/02/17 07:42:35;;;;;;;6.88;4.13;;;11.60;99.90;;;10.73;100.00;102787.63;4167848;28;20033;-78
2023/02/17 07:44:35;;;;;;;6.93;4.50;;;11.60;99.90;;;10.75;100.00;102791.84;4167925;28;20033;-78
2023/02/17 07:46:38;;;;;;;8.00;5.25;;;11.70;99.90;;;10.79;100.00;102797.75;4176435;28;20029;-78
2023/02/17 07:48:39;;;;;;;7.78;4.90;;;11.70;99.90;;;10.78;100.00;102785.53;4155131;28;20033;-78
2023/02/17 07:50:40;;;;;;;6.35;4.20;;;11.70;99.90;;;10.82;100.00;102790.47;4167779;28;20035;-78
2023/02/17 07:52:41;;;;;;;7.15;4.22;;;11.70;99.90;;;10.90;100.00;102801.31;4167804;28;20108;-78
2023/02/17 07:54:42;;;;;;;6.28;4.15;;;11.70;99.90;;;10.92;100.00;102799.44;4177919;28;20052;-78
2023/02/17 07:56:43;;;;;;;6.70;4.07;;;11.70;99.90;;;10.95;100.00;102804.50;4176967;28;20072;-78
2023/02/17 07:58:45;;;;;;;7.95;4.47;;;11.80;99.90;;;10.93;100.00;102798.47;4166307;28;20413;-78
2023/02/17 08:00:46;;;;;;;8.20;5.03;;;11.80;99.90;;;11.00;100.00;102809.44;4167994;28;20106;-78
2023/02/17 08:02:47;;;;;;;5.47;3.70;;;11.80;99.90;;;10.96;100.00;102803.53;4151178;28;20030;-78
2023/02/17 08:04:48;;;;;;;8.63;4.70;;;11.90;99.90;;;11.03;100.00;102807.44;4167655;28;20033;-78
2023/02/17 08:06:48;;;;;;;7.32;4.50;;;11.90;99.90;;;10.99;100.00;102794.59;4157686;28;20117;-78
2023/02/17 08:13:35;;;;;;;8.07;5.07;;;11.90;99.90;;;11.15;100.00;102799.59;4172182;28;20455;-78
2023/02/17 08:15:36;;;;;;;6.47;4.57;;;12.00;99.90;;;11.17;100.00;102795.06;4183991;28;20033;-78
2023/02/17 08:17:37;;;;;;;7.63;5.68;;;12.00;99.90;;;11.07;100.00;102790.44;4169881;28;20030;-78
2023/02/17 08:19:38;;;;;;;7.72;4.93;;;12.10;99.90;;;11.19;100.00;102794.00;4167533;28;20100;-78
2023/02/17 08:21:39;;;;;;;5.75;4.68;;;12.10;99.90;;;11.13;100.00;102786.50;4167533;28;20025;-78
2023/02/17 08:23:40;;;;;;;6.43;4.90;;;12.10;99.90;;;11.29;100.00;102807.41;4167480;28;20042;-78
2023/02/17 08:25:41;;;;;;;8.15;4.95;;;12.10;99.90;;;11.21;100.00;102793.88;4168221;28;20041;-78
2023/02/17 08:27:42;;;;;;;7.20;4.97;;;12.20;99.90;;;11.27;100.00;102802.19;4184964;28;20025;-79
2023/02/17 08:29:44;;;;;;;8.10;4.82;;;12.10;99.90;;;11.35;100.00;102796.38;4167780;28;20026;-78
2023/02/17 08:31:45;;;;;;;6.57;4.13;;;12.20;99.90;;;11.36;100.00;102798.06;4169093;28;20029;-78
2023/02/17 08:33:47;;;;;;;7.30;4.43;;;12.20;99.90;;;11.31;100.00;102789.63;4162178;28;20029;-78